createdAt,value
2019-04-14T00:00:45.470Z,3.31
2019-04-14T00:03:34.726Z,3.28
2019-04-14T00:06:06.966Z,2.54
2019-04-14T00:08:37.254Z,3.24
2019-04-14T00:11:08.496Z,3.22
2019-04-14T00:13:39.249Z,2.44
2019-04-14T00:16:09.603Z,3.17
2019-04-14T00:18:40.499Z,3.13
2019-04-14T00:21:10.902Z,2.34
2019-04-14T00:23:42.069Z,3.10
2019-04-14T00:26:31.919Z,3.04
2019-04-14T00:29:02.668Z,2.98
2019-04-14T00:31:33.426Z,2.95
2019-04-14T00:34:07.472Z,2.92
2019-04-14T00:36:59.399Z,2.89
2019-04-14T00:39:33.836Z,2.85
2019-04-14T00:42:14.816Z,2.80
2019-04-14T00:44:51.814Z,2.79
2019-04-14T00:47:25.186Z,2.75
2019-04-14T00:49:55.433Z,2.73
2019-04-14T00:52:27.506Z,2.73
2019-04-14T00:54:58.733Z,2.72
2019-04-14T00:57:29.093Z,1.96
2019-04-14T00:59:59.603Z,2.76
2019-04-14T01:02:29.746Z,2.87
2019-04-14T01:05:00.134Z,2.97
2019-04-14T01:07:30.550Z,3.11
2019-04-14T01:10:01.821Z,3.22
2019-04-14T01:12:32.153Z,3.34
2019-04-14T01:15:03.082Z,3.41
2019-04-14T01:17:35.242Z,3.52
2019-04-14T01:20:05.790Z,3.62
2019-04-14T01:22:35.938Z,3.72
2019-04-14T01:25:08.465Z,3.80
2019-04-14T01:27:39.212Z,3.84
2019-04-14T01:30:11.079Z,3.83
2019-04-14T01:32:41.559Z,3.87
2019-04-14T01:35:12.033Z,3.90
2019-04-14T01:37:41.972Z,3.93
2019-04-14T01:40:12.191Z,3.93
2019-04-14T01:42:42.367Z,3.96
2019-04-14T01:45:14.503Z,3.94
2019-04-14T01:47:44.692Z,3.88
2019-04-14T01:50:15.621Z,3.80
2019-04-14T01:52:57.409Z,3.71
2019-04-14T01:55:52.756Z,3.60
2019-04-14T01:58:27.779Z,3.52
2019-04-14T02:01:14.981Z,3.40
2019-04-14T02:03:47.671Z,3.27
2019-04-14T02:06:20.320Z,3.19
2019-04-14T02:08:52.215Z,3.13
2019-04-14T02:11:24.784Z,3.05
2019-04-14T02:13:57.216Z,3.01
2019-04-14T02:16:34.831Z,2.99
2019-04-14T02:19:00.346Z,2.95
2019-04-14T02:21:30.750Z,2.94
2019-04-14T02:24:00.571Z,2.89
2019-04-14T02:26:31.072Z,2.84
2019-04-14T02:29:01.444Z,2.80
2019-04-14T02:31:53.459Z,2.78
2019-04-14T02:34:34.715Z,2.71
2019-04-14T02:37:05.353Z,2.68
2019-04-14T02:39:48.513Z,2.59
2019-04-14T02:44:46.123Z,1.79
2019-04-14T02:47:36.400Z,2.54
2019-04-14T02:49:49.436Z,2.47
2019-04-14T02:52:20.670Z,2.44
2019-04-14T02:54:51.674Z,2.40
2019-04-14T02:57:23.090Z,2.37
2019-04-14T02:59:50.693Z,2.36
2019-04-14T03:02:30.361Z,2.36
2019-04-14T03:05:02.464Z,2.34
2019-04-14T03:10:16.315Z,2.31
2019-04-14T03:15:01.311Z,2.30
2019-04-14T03:17:58.248Z,2.35
2019-04-14T03:25:44.195Z,2.31
2019-04-14T03:34:08.254Z,2.18
2019-04-14T03:36:44.201Z,2.14
2019-04-14T03:41:25.903Z,2.14
2019-04-14T03:43:41.004Z,2.07
2019-04-14T03:46:25.563Z,2.06
2019-04-14T03:51:31.442Z,2.03
2019-04-14T03:53:51.963Z,1.99
2019-04-14T03:56:38.363Z,1.95
2019-04-14T03:59:08.497Z,1.95
2019-04-14T04:01:39.157Z,1.92
2019-04-14T04:04:11.907Z,1.90
2019-04-14T04:06:42.455Z,1.89
2019-04-14T04:09:12.792Z,1.91
2019-04-14T04:11:43.476Z,1.87
2019-04-14T04:14:13.967Z,1.87
2019-04-14T04:17:18.964Z,1.83
2019-04-14T04:19:57.741Z,1.87
2019-04-14T04:23:00.853Z,1.82
2019-04-14T04:26:02.466Z,1.83
2019-04-14T04:28:54.451Z,1.86
2019-04-14T04:31:50.601Z,1.78
2019-04-14T04:34:29.433Z,1.76
2019-04-14T04:37:25.674Z,0.99
2019-04-14T04:39:56.197Z,1.81
2019-04-14T04:42:26.569Z,1.87
2019-04-14T04:44:57.446Z,1.87
2019-04-14T04:47:28.009Z,1.89
2019-04-14T04:49:57.999Z,1.92
2019-04-14T04:52:28.134Z,1.94
2019-04-14T04:54:58.314Z,2.04
2019-04-14T04:57:28.604Z,2.06
2019-04-14T04:59:58.450Z,2.03
2019-04-14T05:02:28.776Z,2.10
2019-04-14T05:04:59.140Z,2.08
2019-04-14T05:07:29.550Z,2.11
2019-04-14T05:10:19.553Z,2.08
2019-04-14T05:13:05.273Z,2.07
2019-04-14T05:15:48.902Z,2.15
2019-04-14T05:18:24.665Z,2.26
2019-04-14T05:20:55.464Z,2.28
2019-04-14T05:23:26.048Z,2.24
2019-04-14T05:25:56.324Z,2.28
2019-04-14T05:28:26.799Z,2.29
2019-04-14T05:30:57.009Z,2.32
2019-04-14T05:33:27.193Z,2.35
2019-04-14T05:35:59.984Z,2.33
2019-04-14T05:38:32.232Z,2.32
2019-04-14T05:41:02.705Z,2.32
2019-04-14T05:43:41.558Z,2.24
2019-04-14T05:46:05.604Z,2.27
2019-04-14T05:48:35.792Z,2.33
2019-04-14T05:51:06.464Z,2.36
2019-04-14T05:53:37.239Z,2.38
2019-04-14T05:56:08.024Z,1.63
2019-04-14T05:58:38.717Z,2.47
2019-04-14T06:01:11.318Z,2.53
2019-04-14T06:03:41.530Z,2.59
2019-04-14T06:06:11.713Z,2.65
2019-04-14T06:08:41.596Z,2.63
2019-04-14T06:11:11.940Z,2.65
2019-04-14T06:13:42.818Z,2.64
2019-04-14T06:16:12.648Z,2.73
2019-04-14T06:18:42.734Z,2.82
2019-04-14T06:21:12.578Z,2.90
2019-04-14T06:23:42.615Z,2.98
2019-04-14T06:26:12.932Z,3.01
2019-04-14T06:28:43.293Z,3.06
2019-04-14T06:31:30.665Z,3.16
2019-04-14T06:34:17.483Z,3.35
2019-04-14T06:37:04.893Z,3.53
2019-04-14T06:39:42.004Z,3.72
2019-04-14T06:42:11.970Z,3.88
2019-04-14T06:44:42.517Z,4.05
2019-04-14T06:47:12.862Z,3.49
2019-04-14T06:49:48.749Z,4.42
2019-04-14T06:52:14.376Z,4.61
2019-04-14T06:54:44.477Z,4.90
2019-04-14T06:57:14.329Z,5.08
2019-04-14T06:59:44.470Z,5.26
2019-04-14T07:02:14.900Z,5.38
2019-04-14T07:04:45.558Z,5.45
2019-04-14T07:07:15.404Z,5.58
2019-04-14T07:09:45.795Z,5.79
2019-04-14T07:12:16.248Z,5.85
2019-04-14T07:14:46.457Z,6.05
2019-04-14T07:17:16.726Z,6.19
2019-04-14T07:19:47.434Z,6.36
2019-04-14T07:22:17.629Z,6.57
2019-04-14T07:24:48.232Z,6.79
2019-04-14T07:27:18.079Z,6.95
2019-04-14T07:29:53.559Z,7.17
2019-04-14T07:32:45.889Z,7.35
2019-04-14T07:35:37.567Z,7.50
2019-04-14T07:38:29.507Z,7.61
2019-04-14T07:41:27.733Z,7.73
2019-04-14T07:44:19.830Z,7.84
2019-04-14T07:51:52.689Z,7.32
2019-04-14T07:58:24.541Z,7.15
2019-04-14T08:05:45.124Z,6.91
2019-04-14T08:09:24.513Z,6.88
2019-04-14T08:11:55.281Z,6.86
2019-04-14T08:14:25.728Z,6.61
2019-04-14T08:16:56.828Z,6.53
2019-04-14T08:19:33.540Z,6.54
2019-04-14T08:22:03.054Z,6.53
2019-04-14T08:24:33.249Z,6.66
2019-04-14T08:27:03.685Z,6.76
2019-04-14T08:29:36.966Z,6.80
2019-04-14T08:32:07.684Z,6.79
2019-04-14T08:34:38.421Z,6.78
2019-04-14T08:37:08.690Z,6.79
2019-04-14T08:39:40.187Z,6.76
2019-04-14T08:42:30.038Z,6.74
2019-04-14T08:45:06.863Z,6.72
2019-04-14T08:47:50.178Z,6.67
2019-04-14T08:50:39.569Z,6.65
2019-04-14T08:53:23.717Z,6.46
2019-04-14T08:56:17.283Z,6.72
2019-04-14T08:59:13.884Z,6.66
2019-04-14T09:02:05.126Z,6.65
2019-04-14T09:04:44.734Z,6.60
2019-04-14T09:07:27.288Z,6.50
2019-04-14T09:10:07.142Z,6.45
2019-04-14T09:12:42.779Z,6.40
2019-04-14T09:15:13.262Z,6.34
2019-04-14T09:17:44.221Z,6.32
2019-04-14T09:20:15.707Z,6.35
2019-04-14T09:22:45.601Z,6.27
2019-04-14T09:25:16.003Z,6.21
2019-04-14T09:27:45.899Z,6.22
2019-04-14T09:30:16.568Z,5.80
2019-04-14T09:32:46.684Z,6.21
2019-04-14T09:35:16.543Z,6.17
2019-04-14T09:37:46.519Z,6.14
2019-04-14T09:40:16.743Z,6.15
2019-04-14T09:42:46.584Z,6.09
2019-04-14T09:45:16.502Z,5.98
2019-04-14T09:47:47.069Z,5.98
2019-04-14T09:50:16.975Z,5.99
2019-04-14T09:52:46.906Z,6.10
2019-04-14T09:55:17.165Z,6.14
2019-04-14T09:57:47.198Z,6.20
2019-04-14T10:00:17.462Z,5.52
2019-04-14T10:02:47.645Z,6.28
2019-04-14T10:05:17.740Z,6.31
2019-04-14T10:07:47.596Z,6.35
2019-04-14T10:10:20.493Z,6.40
2019-04-14T10:12:51.670Z,6.53
2019-04-14T10:15:22.433Z,6.59
2019-04-14T10:17:52.935Z,6.78
2019-04-14T10:20:23.660Z,6.86
2019-04-14T10:22:53.648Z,6.86
2019-04-14T10:25:24.738Z,6.88
2019-04-14T10:27:55.878Z,7.00
2019-04-14T10:30:25.796Z,7.03
2019-04-14T10:32:57.808Z,7.05
2019-04-14T10:35:27.754Z,7.13
2019-04-14T10:37:58.518Z,7.12
2019-04-14T10:40:29.774Z,7.01
2019-04-14T10:43:01.015Z,7.00
2019-04-14T10:45:31.403Z,7.05
2019-04-14T10:48:03.845Z,7.09
2019-04-14T10:50:34.009Z,6.49
2019-04-14T10:53:04.561Z,7.18
2019-04-14T10:55:34.945Z,7.16
2019-04-14T10:58:08.542Z,7.30
2019-04-14T11:00:39.279Z,7.42
2019-04-14T11:03:09.283Z,7.39
2019-04-14T11:05:47.805Z,7.43
2019-04-14T11:08:18.578Z,7.47
2019-04-14T11:10:49.205Z,7.60
2019-04-14T11:13:19.576Z,7.59
2019-04-14T11:15:50.022Z,7.70
2019-04-14T11:18:21.443Z,7.74
2019-04-14T11:20:51.403Z,7.72
2019-04-14T11:23:21.713Z,7.70
2019-04-14T11:25:54.497Z,7.67
2019-04-14T11:28:25.154Z,7.57
2019-04-14T11:30:56.754Z,7.56
2019-04-14T11:33:58.305Z,7.63
2019-04-14T11:36:47.434Z,7.61
2019-04-14T11:39:18.420Z,7.02
2019-04-14T11:41:56.001Z,7.62
2019-04-14T11:44:27.222Z,7.15
2019-04-14T11:46:57.615Z,7.96
2019-04-14T11:49:28.443Z,8.06
2019-04-14T11:51:58.913Z,8.13
2019-04-14T11:54:30.036Z,8.13
2019-04-14T11:57:00.555Z,8.36
2019-04-14T11:59:39.632Z,8.51
2019-04-14T12:02:17.513Z,8.51
2019-04-14T12:04:55.614Z,8.55
2019-04-14T12:07:43.827Z,8.35
2019-04-14T12:10:18.181Z,8.16
2019-04-14T12:12:53.624Z,8.35
2019-04-14T12:15:25.573Z,8.35
2019-04-14T12:17:56.321Z,8.40
2019-04-14T12:20:26.416Z,8.49
2019-04-14T12:23:02.005Z,8.50
2019-04-14T12:25:33.590Z,8.37
2019-04-14T12:28:07.541Z,8.37
2019-04-14T12:30:39.905Z,8.30
2019-04-14T12:33:11.465Z,8.25
2019-04-14T12:35:42.319Z,8.20
2019-04-14T12:38:14.123Z,8.25
2019-04-14T12:40:45.245Z,8.14
2019-04-14T12:43:37.696Z,8.14
2019-04-14T12:46:33.911Z,8.03
2019-04-14T12:49:23.810Z,7.92
2019-04-14T12:52:21.072Z,7.79
2019-04-14T12:54:43.614Z,7.85
2019-04-14T12:57:14.414Z,7.83
2019-04-14T12:59:44.470Z,7.75
2019-04-14T13:02:20.629Z,7.23
2019-04-14T13:04:50.655Z,7.23
2019-04-14T13:07:21.100Z,7.70
2019-04-14T13:09:51.260Z,7.69
2019-04-14T13:12:21.866Z,7.71
2019-04-14T13:14:55.293Z,7.85
2019-04-14T13:17:26.455Z,8.27
2019-04-14T13:19:57.431Z,8.27
2019-04-14T13:22:33.842Z,8.76
2019-04-14T13:24:59.824Z,8.68
2019-04-14T13:27:29.714Z,8.68
2019-04-14T13:30:01.934Z,8.73
2019-04-14T13:32:36.185Z,8.73
2019-04-14T13:35:09.963Z,8.61
2019-04-14T13:37:42.115Z,8.61
2019-04-14T13:40:12.666Z,8.51
2019-04-14T13:42:42.721Z,8.33
2019-04-14T13:45:24.062Z,8.13
2019-04-14T13:47:54.660Z,7.98
2019-04-14T13:50:26.277Z,7.87
2019-04-14T13:52:56.103Z,7.11
2019-04-14T13:55:26.029Z,7.73
2019-04-14T13:57:57.112Z,7.70
2019-04-14T14:00:27.733Z,7.55
2019-04-14T14:02:58.245Z,7.52
2019-04-14T14:05:29.088Z,7.47
2019-04-14T14:07:59.211Z,7.50
2019-04-14T14:10:31.310Z,7.43
2019-04-14T14:13:23.898Z,7.38
2019-04-14T14:16:30.890Z,7.42
2019-04-14T14:19:08.754Z,6.77
2019-04-14T14:21:46.578Z,7.39
2019-04-14T14:24:31.657Z,7.30
2019-04-14T14:27:05.419Z,7.29
2019-04-14T14:29:35.958Z,7.26
2019-04-14T14:32:16.896Z,6.66
2019-04-14T14:34:47.330Z,7.27
2019-04-14T14:37:17.565Z,7.26
2019-04-14T14:39:47.812Z,7.31
2019-04-14T14:42:20.172Z,7.24
2019-04-14T14:44:56.783Z,7.25
2019-04-14T14:47:29.443Z,7.22
2019-04-14T14:50:27.799Z,7.22
2019-04-14T14:52:57.868Z,7.28
2019-04-14T14:55:28.456Z,7.41
2019-04-14T14:57:58.614Z,7.33
2019-04-14T15:00:35.191Z,7.32
2019-04-14T15:03:06.173Z,7.34
2019-04-14T15:05:41.545Z,7.16
2019-04-14T15:08:11.693Z,7.47
2019-04-14T15:10:43.418Z,7.50
2019-04-14T15:13:17.270Z,7.42
2019-04-14T15:15:47.881Z,7.43
2019-04-14T15:18:19.005Z,7.43
2019-04-14T15:20:52.089Z,7.42
2019-04-14T15:23:25.366Z,7.43
2019-04-14T15:25:58.149Z,7.43
2019-04-14T15:28:31.211Z,7.38
2019-04-14T15:31:01.518Z,6.77
2019-04-14T15:33:37.165Z,7.41
2019-04-14T15:36:11.184Z,7.37
2019-04-14T15:38:45.585Z,7.39
2019-04-14T15:41:18.390Z,7.32
2019-04-14T15:43:48.626Z,7.32
2019-04-14T15:46:18.915Z,7.32
2019-04-14T15:48:50.055Z,7.29
2019-04-14T15:51:20.345Z,6.65
2019-04-14T15:53:50.800Z,7.30
2019-04-14T15:56:48.825Z,7.29
2019-04-14T15:59:40.820Z,7.20
2019-04-14T16:02:32.863Z,7.20
2019-04-14T16:05:12.688Z,7.14
2019-04-14T16:08:07.361Z,7.14
2019-04-14T16:10:42.518Z,7.15
2019-04-14T16:13:16.871Z,7.19
2019-04-14T16:15:59.160Z,7.22
2019-04-14T16:18:44.845Z,7.16
2019-04-14T16:21:15.150Z,7.10
2019-04-14T16:23:50.641Z,7.09
2019-04-14T16:26:25.792Z,6.56
2019-04-14T16:29:13.486Z,7.05
2019-04-14T16:32:00.783Z,7.03
2019-04-14T16:34:43.106Z,6.94
2019-04-14T16:37:13.343Z,6.89
2019-04-14T16:39:43.686Z,6.80
2019-04-14T16:42:13.827Z,6.79
2019-04-14T16:44:43.945Z,6.81
2019-04-14T16:47:14.329Z,6.77
2019-04-14T16:49:44.311Z,6.79
2019-04-14T16:52:37.280Z,6.78
2019-04-14T16:55:30.071Z,6.11
2019-04-14T16:58:35.184Z,6.73
2019-04-14T17:01:10.348Z,6.73
2019-04-14T17:03:44.179Z,6.68
2019-04-14T17:06:15.514Z,6.65
2019-04-14T17:08:48.159Z,6.64
2019-04-14T17:11:21.254Z,6.66
2019-04-14T17:14:12.185Z,6.70
2019-04-14T17:17:04.379Z,6.06
2019-04-14T17:19:57.426Z,6.68
2019-04-14T17:23:08.460Z,6.68
2019-04-14T17:26:03.314Z,6.71
2019-04-14T17:28:45.974Z,6.74
2019-04-14T17:31:36.470Z,6.73
2019-04-14T17:34:30.014Z,6.75
2019-04-14T17:37:17.277Z,6.72
2019-04-14T17:40:03.372Z,6.73
2019-04-14T17:42:49.061Z,6.69
2019-04-14T17:45:30.349Z,6.72
2019-04-14T17:48:14.672Z,6.74
2019-04-14T17:51:12.983Z,6.78
2019-04-14T17:53:48.903Z,6.75
2019-04-14T17:56:35.039Z,6.75
2019-04-14T17:59:14.775Z,6.76
2019-04-14T18:02:03.962Z,6.12
2019-04-14T18:05:05.495Z,6.85
2019-04-14T18:07:45.683Z,6.84
2019-04-14T18:10:37.709Z,6.88
2019-04-14T18:13:20.763Z,6.90
2019-04-14T18:16:20.631Z,6.85
2019-04-14T18:19:12.112Z,6.89
2019-04-14T18:21:47.633Z,6.92
2019-04-14T18:24:19.253Z,6.93
2019-04-14T18:26:50.365Z,6.93
2019-04-14T18:29:49.325Z,6.96
2019-04-14T18:32:25.076Z,7.01
2019-04-14T18:35:07.204Z,6.96
2019-04-14T18:38:14.933Z,7.00
2019-04-14T18:41:00.360Z,6.35
2019-04-14T18:44:00.648Z,7.02
2019-04-14T18:46:40.916Z,6.42
2019-04-14T18:49:24.756Z,7.01
2019-04-14T18:52:19.152Z,6.98
2019-04-14T18:55:17.458Z,6.97
2019-04-14T18:58:00.024Z,7.03
2019-04-14T19:00:45.654Z,7.05
2019-04-14T19:03:19.211Z,7.05
2019-04-14T19:05:53.676Z,7.01
2019-04-14T19:08:25.372Z,6.99
2019-04-14T19:11:09.059Z,7.03
2019-04-14T19:13:42.193Z,7.02
2019-04-14T19:16:38.185Z,7.00
2019-04-14T19:19:04.175Z,7.00
2019-04-14T19:21:36.065Z,7.00
2019-04-14T19:24:07.651Z,7.05
2019-04-14T19:26:40.820Z,7.09
2019-04-14T19:29:17.175Z,6.49
2019-04-14T19:31:51.786Z,7.13
2019-04-14T19:34:25.549Z,7.15
2019-04-14T19:36:56.857Z,7.17
2019-04-14T19:39:28.698Z,7.24
2019-04-14T19:42:02.912Z,7.25
2019-04-14T19:44:34.744Z,7.26
2019-04-14T19:47:06.469Z,7.27
2019-04-14T19:49:38.233Z,7.31
2019-04-14T19:52:11.951Z,7.36
2019-04-14T19:54:45.386Z,7.44
2019-04-14T19:57:21.175Z,7.43
2019-04-14T19:59:59.732Z,7.46
2019-04-14T20:02:36.643Z,7.44
2019-04-14T20:05:10.447Z,6.49
2019-04-14T20:07:42.671Z,7.43
2019-04-14T20:10:14.547Z,7.45
2019-04-14T20:12:48.013Z,7.45
2019-04-14T20:15:25.442Z,7.48
2019-04-14T20:18:19.616Z,7.49
2019-04-14T20:21:10.135Z,7.52
2019-04-14T20:23:54.505Z,7.54
2019-04-14T20:26:33.421Z,7.54
2019-04-14T20:29:17.201Z,7.54
2019-04-14T20:32:08.412Z,7.52
2019-04-14T20:34:39.848Z,7.53
2019-04-14T20:37:12.197Z,7.44
2019-04-14T20:39:45.751Z,7.46
2019-04-14T20:42:18.769Z,7.45
2019-04-14T20:44:51.876Z,7.43
2019-04-14T20:47:38.318Z,7.50
2019-04-14T20:50:08.336Z,7.54
2019-04-14T20:52:40.073Z,7.56
2019-04-14T20:55:11.888Z,7.60
2019-04-14T20:57:44.449Z,7.65
2019-04-14T21:00:15.612Z,7.66
2019-04-14T21:03:27.365Z,7.63
2019-04-14T21:06:29.681Z,7.63
2019-04-14T21:09:12.982Z,7.62
2019-04-14T21:12:02.171Z,7.62
2019-04-14T21:14:45.507Z,7.61
2019-04-14T21:17:28.128Z,6.95
2019-04-14T21:20:19.397Z,7.59
2019-04-14T21:23:18.363Z,7.60
2019-04-14T21:26:11.106Z,7.58
2019-04-14T21:29:00.312Z,7.59
2019-04-14T21:31:43.874Z,7.63
2019-04-14T21:34:27.197Z,7.66
2019-04-14T21:37:16.693Z,7.65
2019-04-14T21:39:52.185Z,7.61
2019-04-14T21:42:34.808Z,7.60
2019-04-14T21:45:13.050Z,7.60
2019-04-14T21:47:46.199Z,6.99
2019-04-14T21:50:16.655Z,7.55
2019-04-14T21:52:49.801Z,7.53
2019-04-14T21:55:23.427Z,7.54
2019-04-14T21:58:19.429Z,7.56
2019-04-14T22:01:48.910Z,7.59
2019-04-14T22:04:38.234Z,7.61
2019-04-14T22:07:30.502Z,7.61
2019-04-14T22:10:13.301Z,7.64
2019-04-14T22:12:45.615Z,7.65
2019-04-14T22:15:17.773Z,7.63
2019-04-14T22:17:51.489Z,7.55
2019-04-14T22:20:22.557Z,6.91
2019-04-14T22:22:58.342Z,7.63
2019-04-14T22:25:29.744Z,7.66
2019-04-14T22:28:00.228Z,7.65
2019-04-14T22:30:31.419Z,7.65
2019-04-14T22:33:05.943Z,7.63
2019-04-14T22:35:37.869Z,7.62
2019-04-14T22:38:09.289Z,7.62
2019-04-14T22:40:40.555Z,7.58
2019-04-14T22:43:11.593Z,7.61
2019-04-14T22:45:42.517Z,7.62
2019-04-14T22:48:14.389Z,7.63
2019-04-14T22:50:45.879Z,7.57
2019-04-14T22:53:16.261Z,7.55
2019-04-14T22:55:49.724Z,7.59
2019-04-14T22:58:21.959Z,7.57
2019-04-14T23:01:10.826Z,7.54
2019-04-14T23:03:52.170Z,7.57
2019-04-14T23:06:39.978Z,7.62
2019-04-14T23:09:30.601Z,7.66
2019-04-14T23:12:18.798Z,7.66
2019-04-14T23:14:54.012Z,7.08
2019-04-14T23:17:50.999Z,7.71
2019-04-14T23:20:39.974Z,7.74
2019-04-14T23:23:29.540Z,7.75
2019-04-14T23:26:00.887Z,7.76
2019-04-14T23:28:31.929Z,7.76
2019-04-14T23:31:02.332Z,7.75
2019-04-14T23:33:32.947Z,7.73
2019-04-14T23:36:04.410Z,7.71
2019-04-14T23:38:36.838Z,7.69
2019-04-14T23:41:08.562Z,7.65
2019-04-14T23:43:39.403Z,7.60
2019-04-14T23:46:09.351Z,7.57
2019-04-14T23:48:41.230Z,7.54
2019-04-14T23:51:11.463Z,7.50
2019-04-14T23:53:42.327Z,7.43
2019-04-14T23:56:13.907Z,7.33
2019-04-14T23:58:44.685Z,7.29
